sensor_id;sensor_type;location;lat;lon;timestamp;pressure;altitude;pressure_sealevel;temperature;humidity
47913;BME280;33676;51.006;17.180;2023-01-28T00:02:06;100885.66;;;2.02;100.00
47913;BME280;33676;51.006;17.180;2023-01-28T00:04:34;100887.39;;;2.03;100.00
47913;BME280;33676;51.006;17.180;2023-01-28T00:07:02;100889.48;;;2.02;100.00
47913;BME280;33676;51.006;17.180;2023-01-28T00:09:31;100889.33;;;2.01;100.00
47913;BME280;33676;51.006;17.180;2023-01-28T00:11:59;100891.23;;;2.01;100.00
47913;BME280;33676;51.006;17.180;2023-01-28T00:14:28;100892.33;;;1.99;100.00
47913;BME280;33676;51.006;17.180;2023-01-28T00:16:56;100893.79;;;1.96;100.00
47913;BME280;33676;51.006;17.180;2023-01-28T00:19:25;100891.70;;;1.97;100.00
47913;BME280;33676;51.006;17.180;2023-01-28T00:21:53;100891.39;;;1.96;100.00
47913;BME280;33676;51.006;17.180;2023-01-28T00:24:22;100892.74;;;1.97;100.00
47913;BME280;33676;51.006;17.180;2023-01-28T00:26:50;100891.39;;;1.96;100.00
47913;BME280;33676;51.006;17.180;2023-01-28T00:29:18;100887.98;;;1.95;100.00
47913;BME280;33676;51.006;17.180;2023-01-28T00:31:47;100886.61;;;1.94;100.00
47913;BME280;33676;51.006;17.180;2023-01-28T00:34:15;100884.54;;;1.94;100.00
47913;BME280;33676;51.006;17.180;2023-01-28T00:36:44;100877.33;;;1.94;100.00
47913;BME280;33676;51.006;17.180;2023-01-28T00:39:13;100880.27;;;1.93;100.00
47913;BME280;33676;51.006;17.180;2023-01-28T00:41:42;100885.83;;;1.92;100.00
47913;BME280;33676;51.006;17.180;2023-01-28T00:44:11;100887.36;;;1.92;100.00
47913;BME280;33676;51.006;17.180;2023-01-28T00:46:39;100888.23;;;1.92;100.00
47913;BME280;33676;51.006;17.180;2023-01-28T00:49:09;100894.21;;;1.93;100.00
47913;BME280;33676;51.006;17.180;2023-01-28T00:51:37;100892.33;;;1.93;100.00
47913;BME280;33676;51.006;17.180;2023-01-28T00:54:06;100890.25;;;1.94;100.00
47913;BME280;33676;51.006;17.180;2023-01-28T00:56:34;100889.73;;;1.93;100.00
47913;BME280;33676;51.006;17.180;2023-01-28T00:59:04;100886.30;;;1.93;100.00
47913;BME280;33676;51.006;17.180;2023-01-28T01:01:33;100887.84;;;1.94;100.00
47913;BME280;33676;51.006;17.180;2023-01-28T01:04:02;100881.68;;;1.92;100.00
47913;BME280;33676;51.006;17.180;2023-01-28T01:06:34;100882.03;;;1.92;100.00
47913;BME280;33676;51.006;17.180;2023-01-28T01:09:06;100883.58;;;1.92;100.00
47913;BME280;33676;51.006;17.180;2023-01-28T01:11:35;100880.30;;;1.92;100.00
47913;BME280;33676;51.006;17.180;2023-01-28T01:14:04;100882.20;;;1.92;100.00
47913;BME280;33676;51.006;17.180;2023-01-28T01:16:34;100889.58;;;1.93;100.00
47913;BME280;33676;51.006;17.180;2023-01-28T01:19:03;100885.98;;;1.92;100.00
47913;BME280;33676;51.006;17.180;2023-01-28T01:21:32;100892.35;;;1.92;100.00
47913;BME280;33676;51.006;17.180;2023-01-28T01:24:00;100898.02;;;1.93;100.00
47913;BME280;33676;51.006;17.180;2023-01-28T01:26:29;100903.02;;;1.93;100.00
47913;BME280;33676;51.006;17.180;2023-01-28T01:28:57;100901.64;;;1.93;100.00
47913;BME280;33676;51.006;17.180;2023-01-28T01:31:26;100906.48;;;1.93;100.00
47913;BME280;33676;51.006;17.180;2023-01-28T01:33:54;100909.20;;;1.94;100.00
47913;BME280;33676;51.006;17.180;2023-01-28T01:36:23;100913.66;;;1.95;100.00
47913;BME280;33676;51.006;17.180;2023-01-28T01:38:53;100908.81;;;1.95;100.00
47913;BME280;33676;51.006;17.180;2023-01-28T01:41:32;100908.93;;;1.97;100.00
47913;BME280;33676;51.006;17.180;2023-01-28T01:44:04;100909.71;;;2.00;100.00
47913;BME280;33676;51.006;17.180;2023-01-28T01:46:44;100910.85;;;2.02;100.00
47913;BME280;33676;51.006;17.180;2023-01-28T01:49:24;100918.89;;;2.04;100.00
47913;BME280;33676;51.006;17.180;2023-01-28T01:52:00;100931.65;;;2.04;100.00
47913;BME280;33676;51.006;17.180;2023-01-28T01:54:31;100933.89;;;2.04;100.00
47913;BME280;33676;51.006;17.180;2023-01-28T01:57:01;100934.05;;;2.05;100.00
47913;BME280;33676;51.006;17.180;2023-01-28T01:59:32;100931.09;;;2.06;100.00
47913;BME280;33676;51.006;17.180;2023-01-28T02:02:04;100928.83;;;2.06;100.00
47913;BME280;33676;51.006;17.180;2023-01-28T02:04:39;100934.85;;;2.07;100.00
47913;BME280;33676;51.006;17.180;2023-01-28T02:07:10;100930.40;;;2.05;100.00
47913;BME280;33676;51.006;17.180;2023-01-28T02:09:40;100932.51;;;2.04;100.00
47913;BME280;33676;51.006;17.180;2023-01-28T02:12:19;100937.48;;;2.05;100.00
47913;BME280;33676;51.006;17.180;2023-01-28T02:14:55;100934.02;;;2.05;100.00
47913;BME280;33676;51.006;17.180;2023-01-28T02:17:26;100938.86;;;2.05;100.00
47913;BME280;33676;51.006;17.180;2023-01-28T02:20:00;100940.59;;;2.05;100.00
47913;BME280;33676;51.006;17.180;2023-01-28T02:32:02;100940.30;;;1.97;100.00
47913;BME280;33676;51.006;17.180;2023-01-28T02:34:47;100944.73;;;1.94;100.00
47913;BME280;33676;51.006;17.180;2023-01-28T02:37:24;100943.02;;;1.93;100.00
47913;BME280;33676;51.006;17.180;2023-01-28T02:40:01;100944.63;;;1.92;100.00
47913;BME280;33676;51.006;17.180;2023-01-28T02:42:36;100942.96;;;1.90;100.00
47913;BME280;33676;51.006;17.180;2023-01-28T02:45:24;100943.98;;;1.84;100.00
47913;BME280;33676;51.006;17.180;2023-01-28T02:48:14;100945.96;;;1.82;100.00
47913;BME280;33676;51.006;17.180;2023-01-28T02:51:02;100951.33;;;1.81;100.00
47913;BME280;33676;51.006;17.180;2023-01-28T02:53:46;100943.77;;;1.81;100.00
47913;BME280;33676;51.006;17.180;2023-01-28T02:57:03;100947.74;;;1.80;100.00
47913;BME280;33676;51.006;17.180;2023-01-28T03:00:02;100944.69;;;1.78;100.00
47913;BME280;33676;51.006;17.180;2023-01-28T03:05:27;100945.83;;;1.76;100.00
47913;BME280;33676;51.006;17.180;2023-01-28T03:07:58;100945.20;;;1.73;100.00
47913;BME280;33676;51.006;17.180;2023-01-28T03:10:27;100947.46;;;1.73;100.00
47913;BME280;33676;51.006;17.180;2023-01-28T03:12:57;100943.99;;;1.73;100.00
47913;BME280;33676;51.006;17.180;2023-01-28T03:15:47;100944.62;;;1.75;100.00
47913;BME280;33676;51.006;17.180;2023-01-28T03:18:48;100941.23;;;1.73;100.00
47913;BME280;33676;51.006;17.180;2023-01-28T03:21:41;100945.02;;;1.73;100.00
47913;BME280;33676;51.006;17.180;2023-01-28T03:24:44;100948.03;;;1.71;100.00
47913;BME280;33676;51.006;17.180;2023-01-28T03:27:54;100951.89;;;1.69;100.00
47913;BME280;33676;51.006;17.180;2023-01-28T03:30:58;100947.30;;;1.66;100.00
47913;BME280;33676;51.006;17.180;2023-01-28T03:33:49;100950.07;;;1.66;100.00
47913;BME280;33676;51.006;17.180;2023-01-28T03:36:37;100945.08;;;1.66;100.00
47913;BME280;33676;51.006;17.180;2023-01-28T03:39:24;100949.05;;;1.66;100.00
47913;BME280;33676;51.006;17.180;2023-01-28T03:42:10;100943.41;;;1.64;100.00
47913;BME280;33676;51.006;17.180;2023-01-28T03:44:39;100941.77;;;1.61;100.00
47913;BME280;33676;51.006;17.180;2023-01-28T03:47:26;100945.80;;;1.59;100.00
47913;BME280;33676;51.006;17.180;2023-01-28T03:49:56;100946.34;;;1.58;100.00
47913;BME280;33676;51.006;17.180;2023-01-28T03:52:31;100952.05;;;1.57;100.00
47913;BME280;33676;51.006;17.180;2023-01-28T03:54:59;100949.66;;;1.57;100.00
47913;BME280;33676;51.006;17.180;2023-01-28T03:57:28;100952.59;;;1.57;100.00
47913;BME280;33676;51.006;17.180;2023-01-28T03:59:58;100956.54;;;1.57;100.00
47913;BME280;33676;51.006;17.180;2023-01-28T04:02:28;100961.01;;;1.57;100.00
47913;BME280;33676;51.006;17.180;2023-01-28T04:04:56;100958.45;;;1.56;100.00
47913;BME280;33676;51.006;17.180;2023-01-28T04:07:26;100962.43;;;1.57;100.00
47913;BME280;33676;51.006;17.180;2023-01-28T04:09:54;100963.18;;;1.55;100.00
47913;BME280;33676;51.006;17.180;2023-01-28T04:12:22;100965.27;;;1.55;100.00
47913;BME280;33676;51.006;17.180;2023-01-28T04:14:51;100963.71;;;1.54;100.00
47913;BME280;33676;51.006;17.180;2023-01-28T04:17:19;100964.92;;;1.54;100.00
47913;BME280;33676;51.006;17.180;2023-01-28T04:19:47;100968.36;;;1.54;100.00
47913;BME280;33676;51.006;17.180;2023-01-28T04:22:16;100964.58;;;1.54;100.00
47913;BME280;33676;51.006;17.180;2023-01-28T04:24:44;100964.83;;;1.51;100.00
47913;BME280;33676;51.006;17.180;2023-01-28T04:27:12;100966.79;;;1.50;100.00
47913;BME280;33676;51.006;17.180;2023-01-28T04:29:41;100968.16;;;1.50;100.00
47913;BME280;33676;51.006;17.180;2023-01-28T04:32:09;100968.66;;;1.51;100.00
47913;BME280;33676;51.006;17.180;2023-01-28T04:34:38;100971.05;;;1.51;100.00
47913;BME280;33676;51.006;17.180;2023-01-28T04:37:07;100975.20;;;1.51;100.00
47913;BME280;33676;51.006;17.180;2023-01-28T04:39:36;100975.92;;;1.49;100.00
47913;BME280;33676;51.006;17.180;2023-01-28T04:42:04;100975.98;;;1.47;100.00
47913;BME280;33676;51.006;17.180;2023-01-28T04:44:33;100980.99;;;1.47;100.00
47913;BME280;33676;51.006;17.180;2023-01-28T04:47:01;100978.61;;;1.46;100.00
47913;BME280;33676;51.006;17.180;2023-01-28T04:49:29;100987.03;;;1.47;100.00
47913;BME280;33676;51.006;17.180;2023-01-28T04:51:58;100986.69;;;1.47;100.00
47913;BME280;33676;51.006;17.180;2023-01-28T04:54:26;100985.29;;;1.47;100.00
47913;BME280;33676;51.006;17.180;2023-01-28T04:56:55;100983.92;;;1.47;100.00
47913;BME280;33676;51.006;17.180;2023-01-28T04:59:23;100986.68;;;1.47;100.00
47913;BME280;33676;51.006;17.180;2023-01-28T05:01:52;100988.29;;;1.45;100.00
47913;BME280;33676;51.006;17.180;2023-01-28T05:04:20;100988.15;;;1.44;100.00
47913;BME280;33676;51.006;17.180;2023-01-28T05:06:49;100994.70;;;1.44;100.00
47913;BME280;33676;51.006;17.180;2023-01-28T05:09:17;100999.48;;;1.45;100.00
47913;BME280;33676;51.006;17.180;2023-01-28T05:11:46;100999.86;;;1.44;100.00
47913;BME280;33676;51.006;17.180;2023-01-28T05:14:14;100996.83;;;1.41;100.00
47913;BME280;33676;51.006;17.180;2023-01-28T05:16:43;100995.45;;;1.42;100.00
47913;BME280;33676;51.006;17.180;2023-01-28T05:19:11;100993.75;;;1.41;100.00
47913;BME280;33676;51.006;17.180;2023-01-28T05:21:39;100997.33;;;1.42;100.00
47913;BME280;33676;51.006;17.180;2023-01-28T05:24:08;100998.93;;;1.40;100.00
47913;BME280;33676;51.006;17.180;2023-01-28T05:26:36;100998.82;;;1.38;100.00
47913;BME280;33676;51.006;17.180;2023-01-28T05:29:05;101004.00;;;1.37;100.00
47913;BME280;33676;51.006;17.180;2023-01-28T05:31:33;101005.24;;;1.36;100.00
47913;BME280;33676;51.006;17.180;2023-01-28T05:34:01;101005.78;;;1.35;100.00
47913;BME280;33676;51.006;17.180;2023-01-28T05:36:30;101007.89;;;1.33;100.00
47913;BME280;33676;51.006;17.180;2023-01-28T05:38:58;101015.87;;;1.31;100.00
47913;BME280;33676;51.006;17.180;2023-01-28T05:41:26;101017.77;;;1.31;100.00
47913;BME280;33676;51.006;17.180;2023-01-28T05:43:55;101018.10;;;1.32;100.00
47913;BME280;33676;51.006;17.180;2023-01-28T05:46:23;101019.83;;;1.32;100.00
47913;BME280;33676;51.006;17.180;2023-01-28T05:48:54;101018.96;;;1.32;100.00
47913;BME280;33676;51.006;17.180;2023-01-28T05:51:23;101021.89;;;1.32;100.00
47913;BME280;33676;51.006;17.180;2023-01-28T05:53:51;101017.05;;;1.32;100.00
47913;BME280;33676;51.006;17.180;2023-01-28T05:56:19;101018.60;;;1.32;100.00
47913;BME280;33676;51.006;17.180;2023-01-28T05:58:48;101020.31;;;1.32;100.00
47913;BME280;33676;51.006;17.180;2023-01-28T06:01:16;101021.69;;;1.33;100.00
47913;BME280;33676;51.006;17.180;2023-01-28T06:03:45;101018.23;;;1.33;100.00
47913;BME280;33676;51.006;17.180;2023-01-28T06:06:13;101018.77;;;1.32;100.00
47913;BME280;33676;51.006;17.180;2023-01-28T06:08:42;101020.70;;;1.32;100.00
47913;BME280;33676;51.006;17.180;2023-01-28T06:11:10;101025.33;;;1.32;100.00
47913;BME280;33676;51.006;17.180;2023-01-28T06:13:38;101025.39;;;1.30;100.00
47913;BME280;33676;51.006;17.180;2023-01-28T06:16:09;101025.86;;;1.25;100.00
47913;BME280;33676;51.006;17.180;2023-01-28T06:18:37;101029.23;;;1.22;100.00
47913;BME280;33676;51.006;17.180;2023-01-28T06:21:06;101029.81;;;1.19;100.00
47913;BME280;33676;51.006;17.180;2023-01-28T06:23:35;101032.88;;;1.14;100.00
47913;BME280;33676;51.006;17.180;2023-01-28T06:26:03;101039.81;;;1.12;100.00
47913;BME280;33676;51.006;17.180;2023-01-28T06:28:32;101037.61;;;1.11;100.00
47913;BME280;33676;51.006;17.180;2023-01-28T06:31:00;101042.76;;;1.12;100.00
47913;BME280;33676;51.006;17.180;2023-01-28T06:33:29;101051.38;;;1.11;100.00
47913;BME280;33676;51.006;17.180;2023-01-28T06:35:57;101049.32;;;1.11;100.00
47913;BME280;33676;51.006;17.180;2023-01-28T06:38:25;101053.23;;;1.13;100.00
47913;BME280;33676;51.006;17.180;2023-01-28T06:40:54;101054.05;;;1.15;100.00
47913;BME280;33676;51.006;17.180;2023-01-28T06:43:23;101053.55;;;1.14;100.00
47913;BME280;33676;51.006;17.180;2023-01-28T06:45:58;101059.38;;;1.15;100.00
47913;BME280;33676;51.006;17.180;2023-01-28T06:48:27;101058.00;;;1.14;100.00
47913;BME280;33676;51.006;17.180;2023-01-28T06:50:55;101054.61;;;1.13;100.00
47913;BME280;33676;51.006;17.180;2023-01-28T06:53:24;101060.11;;;1.13;100.00
47913;BME280;33676;51.006;17.180;2023-01-28T06:55:52;101064.58;;;1.14;100.00
47913;BME280;33676;51.006;17.180;2023-01-28T06:58:21;101067.16;;;1.14;100.00
47913;BME280;33676;51.006;17.180;2023-01-28T07:00:49;101066.61;;;1.15;100.00
47913;BME280;33676;51.006;17.180;2023-01-28T07:03:17;101071.25;;;1.16;100.00
47913;BME280;33676;51.006;17.180;2023-01-28T07:05:46;101071.20;;;1.17;100.00
47913;BME280;33676;51.006;17.180;2023-01-28T07:08:14;101074.63;;;1.18;100.00
47913;BME280;33676;51.006;17.180;2023-01-28T07:10:43;101080.42;;;1.20;100.00
47913;BME280;33676;51.006;17.180;2023-01-28T07:13:12;101080.23;;;1.20;100.00
47913;BME280;33676;51.006;17.180;2023-01-28T07:15:40;101083.86;;;1.20;100.00
47913;BME280;33676;51.006;17.180;2023-01-28T07:18:08;101087.67;;;1.19;100.00
47913;BME280;33676;51.006;17.180;2023-01-28T07:20:37;101095.62;;;1.18;100.00
47913;BME280;33676;51.006;17.180;2023-01-28T07:23:06;101096.33;;;1.18;100.00
47913;BME280;33676;51.006;17.180;2023-01-28T07:25:34;101099.23;;;1.18;100.00
47913;BME280;33676;51.006;17.180;2023-01-28T07:28:03;101096.64;;;1.19;100.00
47913;BME280;33676;51.006;17.180;2023-01-28T07:30:32;101098.52;;;1.20;100.00
47913;BME280;33676;51.006;17.180;2023-01-28T07:33:00;101098.54;;;1.19;100.00
47913;BME280;33676;51.006;17.180;2023-01-28T07:35:29;101101.45;;;1.19;100.00
47913;BME280;33676;51.006;17.180;2023-01-28T07:37:59;101103.85;;;1.19;100.00
47913;BME280;33676;51.006;17.180;2023-01-28T07:40:28;101100.79;;;1.18;100.00
47913;BME280;33676;51.006;17.180;2023-01-28T07:42:57;101106.84;;;1.17;100.00
47913;BME280;33676;51.006;17.180;2023-01-28T07:45:25;101105.48;;;1.16;100.00
47913;BME280;33676;51.006;17.180;2023-01-28T07:47:58;101105.99;;;1.16;100.00
47913;BME280;33676;51.006;17.180;2023-01-28T07:50:28;101102.89;;;1.16;100.00
47913;BME280;33676;51.006;17.180;2023-01-28T07:52:57;101103.21;;;1.18;100.00
47913;BME280;33676;51.006;17.180;2023-01-28T07:55:26;101103.70;;;1.19;100.00
47913;BME280;33676;51.006;17.180;2023-01-28T07:57:59;101107.45;;;1.20;100.00
47913;BME280;33676;51.006;17.180;2023-01-28T08:00:31;101105.50;;;1.22;100.00
47913;BME280;33676;51.006;17.180;2023-01-28T08:03:06;101106.11;;;1.25;100.00
47913;BME280;33676;51.006;17.180;2023-01-28T08:05:46;101108.95;;;1.28;100.00
47913;BME280;33676;51.006;17.180;2023-01-28T08:08:16;101108.03;;;1.31;100.00
47913;BME280;33676;51.006;17.180;2023-01-28T08:10:45;101114.84;;;1.34;100.00
47913;BME280;33676;51.006;17.180;2023-01-28T08:13:15;101117.50;;;1.38;100.00
47913;BME280;33676;51.006;17.180;2023-01-28T08:15:45;101116.54;;;1.42;100.00
47913;BME280;33676;51.006;17.180;2023-01-28T08:18:15;101117.96;;;1.46;100.00
47913;BME280;33676;51.006;17.180;2023-01-28T08:20:44;101117.87;;;1.50;100.00
47913;BME280;33676;51.006;17.180;2023-01-28T08:23:18;101119.89;;;1.51;100.00
47913;BME280;33676;51.006;17.180;2023-01-28T08:25:47;101120.90;;;1.52;100.00
47913;BME280;33676;51.006;17.180;2023-01-28T08:28:16;101124.35;;;1.52;100.00
47913;BME280;33676;51.006;17.180;2023-01-28T08:30:44;101125.22;;;1.52;100.00
47913;BME280;33676;51.006;17.180;2023-01-28T08:33:15;101123.19;;;1.51;100.00
47913;BME280;33676;51.006;17.180;2023-01-28T08:35:44;101124.80;;;1.48;100.00
47913;BME280;33676;51.006;17.180;2023-01-28T08:38:13;101125.02;;;1.47;100.00
47913;BME280;33676;51.006;17.180;2023-01-28T08:40:46;101123.84;;;1.45;100.00
47913;BME280;33676;51.006;17.180;2023-01-28T08:43:15;101121.30;;;1.44;100.00
47913;BME280;33676;51.006;17.180;2023-01-28T08:45:44;101126.08;;;1.46;100.00
47913;BME280;33676;51.006;17.180;2023-01-28T08:48:16;101128.30;;;1.46;100.00
47913;BME280;33676;51.006;17.180;2023-01-28T08:50:45;101126.58;;;1.47;100.00
47913;BME280;33676;51.006;17.180;2023-01-28T08:53:16;101125.58;;;1.45;100.00
47913;BME280;33676;51.006;17.180;2023-01-28T08:55:46;101126.13;;;1.44;100.00
47913;BME280;33676;51.006;17.180;2023-01-28T08:58:16;101126.85;;;1.43;100.00
47913;BME280;33676;51.006;17.180;2023-01-28T09:00:46;101132.39;;;1.42;100.00
47913;BME280;33676;51.006;17.180;2023-01-28T09:03:16;101130.82;;;1.42;100.00
47913;BME280;33676;51.006;17.180;2023-01-28T09:05:45;101131.59;;;1.39;100.00
47913;BME280;33676;51.006;17.180;2023-01-28T09:08:14;101132.97;;;1.39;100.00
47913;BME280;33676;51.006;17.180;2023-01-28T09:10:43;101134.97;;;1.42;100.00
47913;BME280;33676;51.006;17.180;2023-01-28T09:13:14;101135.32;;;1.42;100.00
47913;BME280;33676;51.006;17.180;2023-01-28T09:15:43;101137.63;;;1.39;100.00
47913;BME280;33676;51.006;17.180;2023-01-28T09:18:12;101139.01;;;1.39;100.00
47913;BME280;33676;51.006;17.180;2023-01-28T09:20:40;101143.63;;;1.40;100.00
47913;BME280;33676;51.006;17.180;2023-01-28T09:23:09;101144.30;;;1.41;100.00
47913;BME280;33676;51.006;17.180;2023-01-28T09:25:38;101147.01;;;1.43;100.00
47913;BME280;33676;51.006;17.180;2023-01-28T09:28:07;101145.38;;;1.45;100.00
47913;BME280;33676;51.006;17.180;2023-01-28T09:30:36;101144.78;;;1.48;100.00
47913;BME280;33676;51.006;17.180;2023-01-28T09:33:06;101149.75;;;1.49;100.00
47913;BME280;33676;51.006;17.180;2023-01-28T09:35:34;101153.10;;;1.47;100.00
47913;BME280;33676;51.006;17.180;2023-01-28T09:38:04;101156.55;;;1.47;100.00
47913;BME280;33676;51.006;17.180;2023-01-28T09:40:40;101159.52;;;1.45;100.00
47913;BME280;33676;51.006;17.180;2023-01-28T09:43:41;101159.42;;;1.42;100.00
47913;BME280;33676;51.006;17.180;2023-01-28T09:46:15;101162.69;;;1.42;100.00
47913;BME280;33676;51.006;17.180;2023-01-28T09:48:50;101163.49;;;1.45;100.00
47913;BME280;33676;51.006;17.180;2023-01-28T09:51:39;101163.58;;;1.48;100.00
47913;BME280;33676;51.006;17.180;2023-01-28T09:54:23;101162.39;;;1.47;100.00
47913;BME280;33676;51.006;17.180;2023-01-28T09:57:02;101163.30;;;1.45;100.00
47913;BME280;33676;51.006;17.180;2023-01-28T09:59:34;101168.48;;;1.45;100.00
47913;BME280;33676;51.006;17.180;2023-01-28T10:02:25;101165.85;;;1.47;100.00
47913;BME280;33676;51.006;17.180;2023-01-28T10:14:09;101166.60;;;1.51;100.00
47913;BME280;33676;51.006;17.180;2023-01-28T10:16:45;101160.84;;;1.54;100.00
47913;BME280;33676;51.006;17.180;2023-01-28T10:19:27;101159.36;;;1.57;100.00
47913;BME280;33676;51.006;17.180;2023-01-28T10:22:06;101162.67;;;1.61;100.00
47913;BME280;33676;51.006;17.180;2023-01-28T10:24:44;101165.44;;;1.61;100.00
47913;BME280;33676;51.006;17.180;2023-01-28T10:27:23;101165.73;;;1.63;100.00
47913;BME280;33676;51.006;17.180;2023-01-28T10:29:51;101164.95;;;1.66;100.00
47913;BME280;33676;51.006;17.180;2023-01-28T10:32:36;101165.92;;;1.69;100.00
47913;BME280;33676;51.006;17.180;2023-01-28T10:35:06;101162.80;;;1.69;100.00
47913;BME280;33676;51.006;17.180;2023-01-28T10:37:37;101163.92;;;1.66;100.00
47913;BME280;33676;51.006;17.180;2023-01-28T10:40:17;101166.80;;;1.62;100.00
47913;BME280;33676;51.006;17.180;2023-01-28T10:42:46;101168.18;;;1.61;100.00
47913;BME280;33676;51.006;17.180;2023-01-28T10:45:29;101162.44;;;1.57;100.00
47913;BME280;33676;51.006;17.180;2023-01-28T10:48:12;101163.21;;;1.55;100.00
47913;BME280;33676;51.006;17.180;2023-01-28T10:50:52;101163.56;;;1.55;100.00
47913;BME280;33676;51.006;17.180;2023-01-28T10:53:41;101165.03;;;1.57;100.00
47913;BME280;33676;51.006;17.180;2023-01-28T10:56:13;101158.98;;;1.57;100.00
47913;BME280;33676;51.006;17.180;2023-01-28T10:59:06;101158.68;;;1.56;100.00
47913;BME280;33676;51.006;17.180;2023-01-28T11:01:55;101163.52;;;1.57;100.00
47913;BME280;33676;51.006;17.180;2023-01-28T11:04:27;101165.73;;;1.57;100.00
47913;BME280;33676;51.006;17.180;2023-01-28T11:07:20;101163.55;;;1.55;100.00
47913;BME280;33676;51.006;17.180;2023-01-28T11:09:50;101158.59;;;1.54;100.00
47913;BME280;33676;51.006;17.180;2023-01-28T11:12:27;101163.60;;;1.54;100.00
47913;BME280;33676;51.006;17.180;2023-01-28T11:15:03;101164.25;;;1.55;100.00
47913;BME280;33676;51.006;17.180;2023-01-28T11:17:37;101162.69;;;1.55;100.00
47913;BME280;33676;51.006;17.180;2023-01-28T11:20:19;101162.05;;;1.54;100.00
47913;BME280;33676;51.006;17.180;2023-01-28T11:22:49;101161.02;;;1.53;100.00
47913;BME280;33676;51.006;17.180;2023-01-28T11:27:53;101162.22;;;1.54;100.00
47913;BME280;33676;51.006;17.180;2023-01-28T11:30:28;101156.20;;;1.53;100.00
47913;BME280;33676;51.006;17.180;2023-01-28T11:33:23;101150.37;;;1.52;100.00
47913;BME280;33676;51.006;17.180;2023-01-28T11:36:04;101152.35;;;1.49;100.00
47913;BME280;33676;51.006;17.180;2023-01-28T11:38:32;101157.20;;;1.47;100.00
47913;BME280;33676;51.006;17.180;2023-01-28T11:41:01;101152.77;;;1.46;100.00
47913;BME280;33676;51.006;17.180;2023-01-28T11:43:30;101148.23;;;1.48;100.00
47913;BME280;33676;51.006;17.180;2023-01-28T11:46:17;101148.35;;;1.50;100.00
47913;BME280;33676;51.006;17.180;2023-01-28T11:55:44;101148.55;;;1.67;100.00
47913;BME280;33676;51.006;17.180;2023-01-28T12:04:20;101148.94;;;1.66;100.00
47913;BME280;33676;51.006;17.180;2023-01-28T12:09:59;101152.61;;;1.70;100.00
47913;BME280;33676;51.006;17.180;2023-01-28T12:16:03;101153.17;;;1.75;100.00
47913;BME280;33676;51.006;17.180;2023-01-28T12:28:13;101146.58;;;1.57;100.00
47913;BME280;33676;51.006;17.180;2023-01-28T12:33:43;101153.45;;;1.53;100.00
47913;BME280;33676;51.006;17.180;2023-01-28T12:36:47;101150.62;;;1.49;100.00
47913;BME280;33676;51.006;17.180;2023-01-28T12:42:52;101149.14;;;1.40;100.00
47913;BME280;33676;51.006;17.180;2023-01-28T12:45:48;101152.85;;;1.37;100.00
47913;BME280;33676;51.006;17.180;2023-01-28T12:48:30;101156.02;;;1.33;100.00
47913;BME280;33676;51.006;17.180;2023-01-28T12:53:56;101151.70;;;1.34;100.00
47913;BME280;33676;51.006;17.180;2023-01-28T12:56:35;101156.39;;;1.32;100.00
47913;BME280;33676;51.006;17.180;2023-01-28T12:59:12;101159.14;;;1.33;100.00
47913;BME280;33676;51.006;17.180;2023-01-28T13:01:46;101162.77;;;1.33;100.00
47913;BME280;33676;51.006;17.180;2023-01-28T13:10:47;101166.75;;;1.31;100.00
47913;BME280;33676;51.006;17.180;2023-01-28T13:13:32;101174.29;;;1.33;100.00
47913;BME280;33676;51.006;17.180;2023-01-28T13:16:02;101173.42;;;1.33;100.00
47913;BME280;33676;51.006;17.180;2023-01-28T13:27:11;101163.48;;;1.24;99.97
47913;BME280;33676;51.006;17.180;2023-01-28T13:29:46;101169.59;;;1.21;99.95
47913;BME280;33676;51.006;17.180;2023-01-28T13:32:30;101169.67;;;1.18;99.53
47913;BME280;33676;51.006;17.180;2023-01-28T13:35:05;101165.66;;;1.13;99.28
47913;BME280;33676;51.006;17.180;2023-01-28T13:37:38;101166.35;;;1.13;99.80
47913;BME280;33676;51.006;17.180;2023-01-28T13:40:23;101170.66;;;1.13;99.83
47913;BME280;33676;51.006;17.180;2023-01-28T13:43:23;101171.49;;;1.14;99.80
47913;BME280;33676;51.006;17.180;2023-01-28T13:45:58;101172.89;;;1.13;99.51
47913;BME280;33676;51.006;17.180;2023-01-28T13:48:48;101170.55;;;1.10;99.59
47913;BME280;33676;51.006;17.180;2023-01-28T13:51:30;101171.79;;;1.09;99.76
47913;BME280;33676;51.006;17.180;2023-01-28T13:54:04;101173.37;;;1.08;99.37
47913;BME280;33676;51.006;17.180;2023-01-28T13:57:09;101178.73;;;1.06;99.39
47913;BME280;33676;51.006;17.180;2023-01-28T14:00:00;101175.23;;;1.03;98.96
47913;BME280;33676;51.006;17.180;2023-01-28T14:08:25;101184.89;;;0.88;98.24
47913;BME280;33676;51.006;17.180;2023-01-28T14:14:24;101188.54;;;0.72;97.92
47913;BME280;33676;51.006;17.180;2023-01-28T14:17:03;101191.58;;;0.66;98.28
47913;BME280;33676;51.006;17.180;2023-01-28T14:19:37;101193.02;;;0.62;98.57
47913;BME280;33676;51.006;17.180;2023-01-28T14:22:16;101194.77;;;0.61;98.57
47913;BME280;33676;51.006;17.180;2023-01-28T14:24:45;101203.58;;;0.60;98.67
47913;BME280;33676;51.006;17.180;2023-01-28T14:27:35;101205.36;;;0.58;98.61
47913;BME280;33676;51.006;17.180;2023-01-28T14:30:23;101199.63;;;0.53;97.95
47913;BME280;33676;51.006;17.180;2023-01-28T14:32:56;101205.11;;;0.46;97.84
47913;BME280;33676;51.006;17.180;2023-01-28T14:35:31;101205.71;;;0.42;97.93
47913;BME280;33676;51.006;17.180;2023-01-28T14:38:06;101208.22;;;0.38;97.98
47913;BME280;33676;51.006;17.180;2023-01-28T14:40:38;101209.30;;;0.35;98.24